map of LFW home
LFW - Airport
Location
City:  Lomé, Maritime, Togo
Name:Gnassingbé Eyadéma International Airport
Old (Alt.):Lomé-Tokoin Airport
ICAO:DXXX
IATA:LFW

Details
Type:Airport (Aerodrome, Airfield)
Use:Public/Civil, International (customs port of entry)
Latitude:6°09'57"N (6.165833)
Longitude:1°15'15"E (1.254167)
Elevation:72 ft (22 m)
Variation:2.58°W (WMM2015v2 magnetic declination)
0.13° annual change
Runways:1
Longest:9843 × 148 ft (3000 × 45 m), paved

Time
Time Zone:UTC+0
Local Time:

Weather
METAR:DXXX 041400Z 21013KT 9999 FEW015 32/25 Q1009 NOSIG
TAF:DXXX 041100Z 0412/0518 20012KT 9999 FEW014
BECMG 0422/0424 26005KT
BECMG 0507/0509 20010KT

Related Locations
Nearby:
Farthest:FUN: 12223 mi / 19671 km
Funafuti Atoll [Intl], TV

Find:

   beyond  
but within

Other Information
Maps:
NOTAMs:
Links:
Sources:

  
  • flag of Togo
  

Sectional Chart

Flight Planning
at skyvector.com

Satellite Image

Google Maps Satellite view

 

Copyright © 2004-2019 Karl L. Swartz. All rights reserved.
The Great Circle Mapper name and logo are trademarks of the Great Circle Mapper.
All other trademarks mentioned herein belong to their respective owners.
Please see credits for attibutions and further copyright information.

  Follow gcmap on Facebook Follow gcmap on Twitter GCmap on LinkedIn

hCard Microformat

Geo Microformat